Time;durP1;ratioP1;P1;durP2;ratioP2;P2;SDS_P1;SDS_P2;PMS_P1;PMS_P2;Temp;Humidity;BMP_temperature;BMP_pressure;BME280_temperature;BME280_humidity;BME280_pressure;Samples;Min_cycle;Max_cycle;Signal;HPM_P1;HPM_P2
2021/09/16 00:01:08;;;;;;;6.07;4.90;;;;;;;32.55;28.81;97898.50;5092666;28;20028;-88
2021/09/16 00:03:34;;;;;;;4.88;4.32;;;;;;;32.37;29.02;97901.59;5085930;28;20067;-88
2021/09/16 00:06:00;;;;;;;6.82;5.60;;;;;;;31.72;30.23;97895.13;5092011;28;20040;-88
2021/09/16 00:08:26;;;;;;;7.80;5.55;;;;;;;31.64;30.01;97893.97;5088504;28;20059;-88
2021/09/16 00:10:52;;;;;;;5.95;4.78;;;;;;;31.69;30.29;97893.28;5089845;28;20047;-88
2021/09/16 00:13:18;;;;;;;5.28;4.45;;;;;;;32.00;29.77;97902.06;5092110;28;20497;-88
2021/09/16 00:15:44;;;;;;;4.30;3.60;;;;;;;32.52;29.02;97894.59;5084301;28;20059;-88
2021/09/16 00:18:10;;;;;;;5.80;3.83;;;;;;;32.58;28.80;97889.75;5081227;28;20028;-89
2021/09/16 00:20:36;;;;;;;5.85;4.18;;;;;;;32.60;28.51;97892.13;5089039;28;20036;-88
2021/09/16 00:23:02;;;;;;;4.85;3.00;;;;;;;32.90;28.29;97893.53;5077904;28;20482;-88
2021/09/16 00:25:28;;;;;;;5.40;3.42;;;;;;;33.13;27.97;97889.69;5085482;28;20039;-88
2021/09/16 00:27:55;;;;;;;4.65;3.60;;;;;;;33.00;27.86;97885.63;5082952;28;20060;-88
2021/09/16 00:30:21;;;;;;;4.88;4.38;;;;;;;32.40;28.50;97889.22;5083751;28;20063;-88
2021/09/16 00:32:47;;;;;;;4.80;3.67;;;;;;;32.86;28.24;97890.09;5076758;28;20050;-88
2021/09/16 00:35:13;;;;;;;3.25;2.95;;;;;;;33.15;27.77;97887.13;5085873;28;20035;-88
2021/09/16 00:37:39;;;;;;;5.13;3.13;;;;;;;33.52;26.96;97881.53;5081470;28;20033;-88
2021/09/16 00:40:07;;;;;;;5.07;3.22;;;;;;;33.84;26.85;97882.34;5084706;28;20076;-89
2021/09/16 00:42:33;;;;;;;3.88;3.15;;;;;;;33.97;26.48;97880.66;5079214;28;20032;-88
2021/09/16 00:44:59;;;;;;;3.03;2.35;;;;;;;34.07;26.08;97879.19;5082226;28;20032;-88
2021/09/16 00:47:25;;;;;;;3.83;2.97;;;;;;;34.28;25.97;97879.84;5078141;28;20457;-88
2021/09/16 00:49:51;;;;;;;5.53;3.22;;;;;;;33.91;26.64;97891.19;5087296;28;20039;-88
2021/09/16 00:52:18;;;;;;;5.03;3.38;;;;;;;33.59;27.13;97883.94;5078805;28;20117;-88
2021/09/16 00:54:46;;;;;;;3.53;2.63;;;;;;;33.53;27.10;97888.03;5090365;28;20046;-88
2021/09/16 00:57:15;;;;;;;6.15;3.42;;;;;;;33.45;27.13;97884.81;5077361;28;20528;-88
2021/09/16 00:59:43;;;;;;;5.07;3.10;;;;;;;33.55;26.93;97883.41;5082446;28;20397;-88
2021/09/16 01:02:09;;;;;;;4.80;2.42;;;;;;;33.65;26.77;97889.69;5083419;28;20393;-88
2021/09/16 01:04:35;;;;;;;4.40;3.03;;;;;;;33.69;26.79;97884.56;5076609;28;20037;-88
2021/09/16 01:07:02;;;;;;;6.70;3.50;;;;;;;33.29;27.03;97891.13;5081928;28;20102;-88
2021/09/16 01:09:30;;;;;;;3.40;3.10;;;;;;;33.47;27.02;97896.47;5083442;28;20080;-88
2021/09/16 01:11:56;;;;;;;7.28;3.55;;;;;;;33.48;26.93;97883.81;5081841;28;20444;-88
2021/09/16 01:14:24;;;;;;;5.25;3.60;;;;;;;33.41;27.04;97882.22;5082639;28;20032;-88
2021/09/16 01:16:51;;;;;;;5.07;2.65;;;;;;;33.36;26.94;97888.63;5078804;28;20516;-87
2021/09/16 01:19:19;;;;;;;4.55;3.55;;;;;;;33.20;27.25;97888.44;5081524;28;20086;-88
2021/09/16 01:21:46;;;;;;;6.63;4.55;;;;;;;32.34;28.49;97882.69;5080103;28;20040;-88
2021/09/16 01:24:12;;;;;;;3.55;3.13;;;;;;;32.85;27.75;97882.84;5076938;28;20551;-88
2021/09/16 01:26:39;;;;;;;3.80;2.88;;;;;;;33.03;27.41;97878.94;5078578;28;20080;-88
2021/09/16 01:29:06;;;;;;;4.13;3.60;;;;;;;33.01;27.34;97885.16;5085972;28;20036;-88
2021/09/16 01:31:44;;;;;;;4.38;3.28;;;;;;;33.16;27.28;97882.22;5078384;28;20528;-88
2021/09/16 01:34:12;;;;;;;3.28;2.97;;;;;;;33.07;27.57;97876.69;5077710;28;20313;-88
2021/09/16 01:36:40;;;;;;;3.10;2.72;;;;;;;33.14;27.44;97882.69;5085621;28;20390;-88
2021/09/16 01:39:09;;;;;;;4.82;2.70;;;;;;;33.03;27.77;97881.78;5076568;28;20032;-88
2021/09/16 01:41:35;;;;;;;4.20;3.58;;;;;;;32.98;27.56;97874.72;5074769;28;20028;-88
2021/09/16 01:44:02;;;;;;;5.55;3.88;;;;;;;33.14;27.02;97867.72;5084241;28;20032;-88
2021/09/16 01:46:28;;;;;;;3.25;2.78;;;;;;;33.20;27.56;97871.38;5082936;28;20032;-88
2021/09/16 01:48:57;;;;;;;3.88;2.97;;;;;;;33.46;26.80;97869.31;5079674;28;20039;-88
2021/09/16 01:51:24;;;;;;;2.85;2.63;;;;;;;33.32;26.85;97873.84;5079795;28;20562;-88
2021/09/16 01:53:50;;;;;;;2.85;2.50;;;;;;;33.59;26.60;97868.91;5078495;28;20485;-87
2021/09/16 01:56:16;;;;;;;5.60;2.22;;;;;;;33.81;26.43;97860.56;5078437;28;20074;-88
2021/09/16 01:58:42;;;;;;;2.50;2.30;;;;;;;33.70;26.70;97863.34;5078577;28;20028;-87
2021/09/16 02:01:08;;;;;;;3.35;2.72;;;;;;;33.49;26.82;97859.00;5084158;28;20075;-88
2021/09/16 02:03:34;;;;;;;3.33;2.45;;;;;;;33.51;27.05;97859.25;5084752;28;20043;-87
2021/09/16 02:06:00;;;;;;;3.90;2.90;;;;;;;33.35;27.32;97861.44;5077569;28;20063;-87
2021/09/16 02:08:26;;;;;;;3.33;2.80;;;;;;;33.44;26.84;97858.41;5087172;28;20029;-87
2021/09/16 02:10:53;;;;;;;3.08;2.70;;;;;;;33.38;26.76;97851.09;5087400;28;20048;-88
2021/09/16 02:13:19;;;;;;;3.13;2.58;;;;;;;33.20;27.41;97855.09;5087206;28;20053;-88
2021/09/16 02:15:45;;;;;;;3.15;2.45;;;;;;;33.16;27.84;97853.75;5076494;28;20033;-88
2021/09/16 02:18:12;;;;;;;4.20;2.42;;;;;;;33.48;26.84;97848.88;5079537;28;20036;-88
2021/09/16 02:20:38;;;;;;;3.05;2.42;;;;;;;33.52;26.46;97852.25;5077542;28;20059;-88
2021/09/16 02:23:04;;;;;;;3.25;2.30;;;;;;;33.64;26.97;97849.03;5080184;28;20036;-88
2021/09/16 02:25:30;;;;;;;3.05;2.17;;;;;;;33.92;26.08;97843.56;5078104;28;20024;-87
2021/09/16 02:27:56;;;;;;;3.15;2.60;;;;;;;33.92;26.19;97843.56;5075738;28;20028;-87
2021/09/16 02:30:22;;;;;;;2.55;2.13;;;;;;;34.07;25.99;97847.81;5076335;28;20020;-88
2021/09/16 02:32:48;;;;;;;2.15;2.00;;;;;;;34.30;25.72;97845.91;5081750;28;20032;-87
2021/09/16 02:35:14;;;;;;;3.05;2.25;;;;;;;34.38;25.30;97846.22;5086975;28;20561;-88
2021/09/16 02:37:41;;;;;;;1.85;1.73;;;;;;;34.26;25.60;97841.75;5077850;28;20064;-88
2021/09/16 02:40:08;;;;;;;2.25;2.00;;;;;;;34.40;25.60;97840.78;5080889;28;20055;-87
2021/09/16 02:42:35;;;;;;;2.38;2.17;;;;;;;34.50;25.12;97839.25;5076810;28;20460;-88
2021/09/16 02:45:01;;;;;;;1.60;1.50;;;;;;;34.62;25.32;97838.03;5090937;28;20532;-88
2021/09/16 02:47:27;;;;;;;3.60;2.10;;;;;;;34.32;25.70;97834.78;5081594;28;20036;-88
2021/09/16 02:49:53;;;;;;;3.38;2.33;;;;;;;34.33;25.46;97836.31;5081150;28;20105;-88
2021/09/16 02:52:19;;;;;;;2.30;2.10;;;;;;;34.39;25.51;97824.94;5077683;28;20516;-88
2021/09/16 02:54:46;;;;;;;2.20;2.00;;;;;;;34.39;25.42;97836.34;5080985;28;20058;-87
2021/09/16 02:57:12;;;;;;;2.05;1.63;;;;;;;34.30;25.48;97836.56;5084042;28;20036;-88
2021/09/16 02:59:38;;;;;;;1.77;1.60;;;;;;;34.04;26.06;97836.69;5075790;28;20036;-88
2021/09/16 03:02:04;;;;;;;3.65;2.40;;;;;;;34.07;25.79;97825.03;5076913;28;20021;-88
2021/09/16 03:04:30;;;;;;;1.60;1.50;;;;;;;34.11;25.70;97824.81;5075965;28;20540;-87
2021/09/16 03:06:56;;;;;;;1.77;1.67;;;;;;;34.11;25.53;97824.81;5079782;28;20381;-88
2021/09/16 03:09:23;;;;;;;2.40;2.00;;;;;;;34.02;25.78;97828.63;5078130;28;20064;-88
2021/09/16 03:11:50;;;;;;;2.28;1.88;;;;;;;33.94;25.92;97830.38;5082306;28;20498;-88
2021/09/16 03:14:16;;;;;;;4.63;1.98;;;;;;;33.91;25.93;97827.78;5074617;28;20482;-88
2021/09/16 03:16:42;;;;;;;3.08;2.35;;;;;;;33.74;26.24;97829.72;5080029;28;20123;-88
2021/09/16 03:19:08;;;;;;;2.00;1.80;;;;;;;33.75;26.18;97819.88;5080506;28;20731;-88
2021/09/16 03:21:34;;;;;;;1.90;1.77;;;;;;;33.86;26.01;97823.59;5087291;28;20043;-88
2021/09/16 03:24:01;;;;;;;2.33;2.13;;;;;;;34.15;25.54;97828.19;5086609;28;20050;-88
2021/09/16 03:26:27;;;;;;;4.28;1.88;;;;;;;34.31;25.41;97826.75;5078934;28;20032;-88
2021/09/16 03:28:53;;;;;;;2.33;2.10;;;;;;;34.00;25.83;97828.31;5077881;28;20477;-88
2021/09/16 03:31:19;;;;;;;2.08;1.77;;;;;;;34.00;25.64;97822.63;5080207;28;20046;-88
2021/09/16 03:33:45;;;;;;;2.03;1.83;;;;;;;34.23;25.72;97825.66;5078223;28;20028;-88
2021/09/16 03:36:11;;;;;;;1.75;1.65;;;;;;;34.32;25.19;97826.22;5079358;28;20396;-88
2021/09/16 03:38:37;;;;;;;1.55;1.45;;;;;;;34.26;25.29;97824.63;5086740;28;20106;-88
2021/09/16 03:41:04;;;;;;;1.60;1.40;;;;;;;34.32;25.10;97822.59;5078255;28;20028;-88
2021/09/16 03:43:30;;;;;;;1.70;1.60;;;;;;;34.40;25.05;97823.69;5076512;28;20066;-88
2021/09/16 03:45:56;;;;;;;2.88;2.00;;;;;;;34.50;24.94;97825.00;5077139;28;20055;-88
2021/09/16 03:48:22;;;;;;;2.17;1.65;;;;;;;34.54;25.06;97825.59;5080523;28;20040;-88
2021/09/16 03:50:49;;;;;;;1.98;1.58;;;;;;;34.43;25.35;97820.56;5076469;28;20486;-88
2021/09/16 03:53:15;;;;;;;2.30;2.10;;;;;;;34.20;25.51;97820.97;5077097;28;20135;-88
2021/09/16 03:55:42;;;;;;;2.55;1.60;;;;;;;34.18;25.41;97823.53;5086845;28;20024;-88
2021/09/16 03:58:08;;;;;;;1.83;1.70;;;;;;;34.20;25.20;97818.91;5082544;28;20036;-88
2021/09/16 04:00:34;;;;;;;2.45;1.60;;;;;;;34.35;24.94;97827.28;5079229;28;20031;-88
2021/09/16 04:03:08;;;;;;;3.05;1.75;;;;;;;34.49;24.94;97814.91;5086281;28;20032;-88
2021/09/16 04:05:34;;;;;;;2.15;1.50;;;;;;;34.64;24.81;97821.97;5082175;28;20381;-87
2021/09/16 04:08:01;;;;;;;1.58;1.40;;;;;;;34.85;24.64;97816.84;5085899;28;20058;-88
2021/09/16 04:10:27;;;;;;;2.00;1.52;;;;;;;34.84;24.72;97818.16;5096748;28;20040;-87
2021/09/16 04:12:53;;;;;;;1.50;1.40;;;;;;;34.87;24.87;97816.38;5085187;28;20063;-87
2021/09/16 04:15:19;;;;;;;3.20;1.92;;;;;;;34.91;24.56;97814.03;5081213;28;20035;-87
2021/09/16 04:17:45;;;;;;;2.08;1.73;;;;;;;34.84;24.84;97811.69;5086919;28;20037;-88
2021/09/16 04:20:12;;;;;;;3.40;2.03;;;;;;;34.76;24.96;97811.38;5086131;28;20036;-88
2021/09/16 04:22:38;;;;;;;1.85;1.52;;;;;;;34.48;24.87;97813.31;5086926;28;20028;-87
2021/09/16 04:25:05;;;;;;;1.70;1.48;;;;;;;34.47;24.95;97820.34;5081051;28;20033;-88
2021/09/16 04:27:31;;;;;;;2.28;1.52;;;;;;;34.71;25.13;97818.63;5085041;28;20520;-87
2021/09/16 04:29:57;;;;;;;2.45;1.60;;;;;;;34.79;25.16;97818.13;5091345;28;20028;-87
2021/09/16 04:32:23;;;;;;;1.90;1.70;;;;;;;34.56;25.11;97823.00;5088506;28;20507;-87
2021/09/16 04:34:50;;;;;;;1.65;1.55;;;;;;;34.74;25.00;97819.69;5090180;28;20081;-87
2021/09/16 04:37:17;;;;;;;1.35;1.25;;;;;;;34.91;24.67;97823.38;5086953;28;20485;-87
2021/09/16 04:39:43;;;;;;;4.60;1.38;;;;;;;34.92;24.84;97829.84;5087832;28;20489;-88
2021/09/16 04:42:10;;;;;;;1.27;1.17;;;;;;;34.99;24.65;97829.34;5091462;28;20065;-85
2021/09/16 04:44:36;;;;;;;1.63;1.40;;;;;;;34.96;24.73;97825.44;5091106;28;20485;-87
2021/09/16 04:47:03;;;;;;;2.60;1.42;;;;;;;34.72;25.42;97830.84;5078614;28;20032;-86
2021/09/16 04:49:29;;;;;;;2.03;1.83;;;;;;;34.87;25.10;97836.34;5084422;28;20036;-86
2021/09/16 04:51:55;;;;;;;2.25;1.42;;;;;;;34.88;24.91;97830.09;5081858;28;20082;-85
2021/09/16 04:54:21;;;;;;;1.35;1.25;;;;;;;34.76;25.34;97828.50;5076832;28;20028;-89
2021/09/16 04:56:47;;;;;;;2.10;1.60;;;;;;;34.49;25.51;97832.78;5076710;28;20037;-88
2021/09/16 04:59:13;;;;;;;1.98;1.48;;;;;;;34.64;25.64;97835.47;5076378;28;20028;-87
2021/09/16 05:01:39;;;;;;;2.85;1.55;;;;;;;34.68;25.39;97830.31;5085620;28;20050;-86
2021/09/16 05:04:05;;;;;;;1.58;1.45;;;;;;;34.89;25.46;97833.75;5095790;28;20038;-86
2021/09/16 05:06:31;;;;;;;1.30;1.20;;;;;;;34.82;25.71;97828.53;5094775;28;20427;-88
2021/09/16 05:08:58;;;;;;;1.92;1.55;;;;;;;34.67;26.00;97835.22;5095868;28;20021;-88
2021/09/16 05:11:24;;;;;;;1.70;1.30;;;;;;;34.51;26.75;97833.06;5090215;28;20028;-88
2021/09/16 05:13:50;;;;;;;1.85;1.35;;;;;;;34.40;26.65;97841.53;5114386;28;20069;-88
2021/09/16 05:16:16;;;;;;;1.33;1.23;;;;;;;34.24;27.31;97838.63;5111164;28;20035;-88
2021/09/16 05:18:42;;;;;;;1.60;1.50;;;;;;;34.17;27.27;97841.94;5078432;28;20036;-88
2021/09/16 05:21:09;;;;;;;2.38;1.63;;;;;;;34.23;27.27;97846.38;5082194;28;20075;-87
2021/09/16 05:23:35;;;;;;;1.80;1.58;;;;;;;34.21;26.53;97837.56;5091154;28;20028;-87
2021/09/16 05:26:01;;;;;;;1.58;1.48;;;;;;;34.29;27.15;97841.50;5083643;28;20038;-88
2021/09/16 05:28:27;;;;;;;1.95;1.35;;;;;;;34.62;26.60;97841.69;5091341;28;20109;-88
2021/09/16 05:30:54;;;;;;;1.55;1.10;;;;;;;35.11;26.07;97843.16;5095425;28;20495;-88
2021/09/16 05:33:20;;;;;;;1.58;1.48;;;;;;;35.51;25.78;97841.16;5093040;28;20434;-88
2021/09/16 05:35:46;;;;;;;1.70;1.30;;;;;;;35.81;25.33;97840.13;5094974;28;20485;-88
2021/09/16 05:38:13;;;;;;;2.03;1.58;;;;;;;35.92;25.30;97842.19;5094904;28;20528;-88
2021/09/16 05:40:39;;;;;;;1.67;1.40;;;;;;;35.60;26.13;97838.84;5079511;28;20032;-88
2021/09/16 05:43:05;;;;;;;1.65;1.55;;;;;;;35.31;26.85;97833.59;5074783;28;20090;-88
2021/09/16 05:45:32;;;;;;;2.15;1.73;;;;;;;35.07;27.32;97839.00;5074994;28;20454;-88
2021/09/16 05:47:58;;;;;;;2.90;1.77;;;;;;;34.84;27.69;97841.00;5086142;28;20036;-88
2021/09/16 05:50:24;;;;;;;2.95;1.67;;;;;;;34.85;27.55;97841.75;5094844;28;20040;-88
2021/09/16 05:52:50;;;;;;;3.08;1.80;;;;;;;34.80;27.19;97840.44;5082146;28;20040;-88
2021/09/16 05:55:16;;;;;;;1.77;1.67;;;;;;;34.86;27.55;97835.56;5074668;28;20032;-88
2021/09/16 05:57:42;;;;;;;1.48;1.38;;;;;;;34.98;27.66;97828.59;5090266;28;20103;-88
2021/09/16 06:00:09;;;;;;;1.92;1.75;;;;;;;35.14;27.46;97836.44;5082195;28;20039;-88
2021/09/16 06:02:35;;;;;;;1.50;1.40;;;;;;;35.23;27.12;97839.03;5072870;28;20490;-88
2021/09/16 06:05:02;;;;;;;2.13;1.73;;;;;;;35.37;28.01;97837.22;5077952;28;20028;-88
2021/09/16 06:07:28;;;;;;;1.67;1.55;;;;;;;35.52;27.41;97837.81;5095018;28;20031;-88
2021/09/16 06:09:54;;;;;;;1.95;1.85;;;;;;;35.25;26.63;97833.59;5091026;28;20036;-88
2021/09/16 06:12:20;;;;;;;1.73;1.50;;;;;;;35.36;26.63;97836.44;5095054;28;20108;-88
2021/09/16 06:14:46;;;;;;;1.70;1.55;;;;;;;35.55;26.38;97841.66;5078464;28;20043;-88
2021/09/16 06:17:12;;;;;;;2.85;1.58;;;;;;;35.55;26.41;97838.81;5074068;28;20056;-88
2021/09/16 06:19:39;;;;;;;3.85;1.52;;;;;;;35.50;27.07;97846.09;5073054;28;20033;-88
2021/09/16 06:22:05;;;;;;;4.70;2.08;;;;;;;35.36;27.32;97847.88;5074572;28;20041;-88
2021/09/16 06:24:31;;;;;;;1.67;1.30;;;;;;;35.47;27.63;97849.97;5074058;28;20044;-88
2021/09/16 06:26:57;;;;;;;2.58;1.73;;;;;;;35.53;26.85;97853.63;5074420;28;20110;-88
2021/09/16 06:29:23;;;;;;;1.60;1.50;;;;;;;35.77;27.06;97848.19;5074006;28;20094;-87
2021/09/16 06:31:49;;;;;;;1.73;1.63;;;;;;;36.11;26.77;97848.94;5090817;28;20038;-88
2021/09/16 06:34:17;;;;;;;3.72;1.90;;;;;;;36.31;26.19;97857.22;5094316;28;20028;-88
2021/09/16 06:36:43;;;;;;;1.65;1.30;;;;;;;36.57;25.93;97854.06;5094102;28;20081;-88
2021/09/16 06:39:09;;;;;;;1.52;1.42;;;;;;;36.78;26.05;97854.50;5092718;28;20063;-88
2021/09/16 06:41:35;;;;;;;3.30;2.13;;;;;;;36.39;27.00;97858.22;5093950;28;20039;-88
2021/09/16 06:44:01;;;;;;;1.83;1.67;;;;;;;36.06;27.04;97861.16;5094402;28;20118;-88
2021/09/16 06:46:27;;;;;;;2.30;1.95;;;;;;;35.73;28.04;97864.03;5093843;28;20034;-87
2021/09/16 06:48:53;;;;;;;1.80;1.55;;;;;;;35.85;28.30;97857.78;5093078;28;20036;-88
2021/09/16 06:51:19;;;;;;;1.70;1.60;;;;;;;35.91;28.08;97867.13;5082001;28;20033;-88
2021/09/16 06:53:45;;;;;;;2.03;1.92;;;;;;;35.61;28.03;97854.69;5073669;28;20108;-87
2021/09/16 06:56:11;;;;;;;2.55;1.73;;;;;;;35.66;27.84;97868.16;5073495;28;20028;-88
2021/09/16 06:58:37;;;;;;;3.28;2.05;;;;;;;35.74;28.00;97859.84;5073562;28;20535;-88
2021/09/16 07:01:03;;;;;;;3.17;2.22;;;;;;;35.63;27.79;97863.50;5091455;28;20032;-88
2021/09/16 07:03:29;;;;;;;2.08;1.73;;;;;;;35.78;27.66;97868.97;5093630;28;20040;-88
2021/09/16 07:05:55;;;;;;;2.50;2.05;;;;;;;35.34;27.93;97861.88;5076181;28;20500;-87
2021/09/16 07:08:22;;;;;;;3.17;1.85;;;;;;;35.56;26.77;97860.38;5073321;28;20033;-88
2021/09/16 07:10:48;;;;;;;3.00;1.70;;;;;;;35.89;26.43;97861.19;5073283;28;20085;-87
2021/09/16 07:13:14;;;;;;;1.60;1.50;;;;;;;35.85;27.11;97872.06;5073224;28;20081;-88
2021/09/16 07:15:40;;;;;;;1.95;1.60;;;;;;;36.15;25.71;97871.56;5073123;28;20037;-87
2021/09/16 07:18:06;;;;;;;1.77;1.63;;;;;;;36.54;25.99;97866.53;5073346;28;20032;-88
2021/09/16 07:20:32;;;;;;;2.33;1.83;;;;;;;36.79;25.79;97870.34;5083026;28;20028;-88
2021/09/16 07:22:58;;;;;;;1.70;1.50;;;;;;;36.80;25.07;97869.03;5092653;28;20393;-88
2021/09/16 07:25:24;;;;;;;2.55;1.75;;;;;;;36.69;25.81;97870.63;5093400;28;20578;-88
2021/09/16 07:27:50;;;;;;;2.55;1.83;;;;;;;36.50;26.47;97866.81;5093174;28;20089;-87
2021/09/16 07:30:16;;;;;;;1.73;1.63;;;;;;;36.18;27.57;97868.41;5093095;28;20413;-88
2021/09/16 07:32:42;;;;;;;2.17;1.88;;;;;;;36.21;28.29;97869.47;5093273;28;20082;-88
2021/09/16 07:35:09;;;;;;;3.38;1.70;;;;;;;36.47;27.37;97867.88;5092076;28;20537;-88
2021/09/16 07:37:35;;;;;;;2.95;2.15;;;;;;;36.97;27.41;97873.41;5109185;28;20034;-88
2021/09/16 07:40:02;;;;;;;4.32;1.70;;;;;;;37.27;25.77;97870.66;5075908;28;20037;-88
2021/09/16 07:42:29;;;;;;;3.28;2.30;;;;;;;36.66;27.05;97868.84;5072831;28;20044;-87
2021/09/16 07:44:55;;;;;;;2.90;1.98;;;;;;;36.69;26.60;97873.50;5072587;28;20078;-87
2021/09/16 07:47:21;;;;;;;2.30;1.60;;;;;;;36.71;26.72;97876.63;5073057;28;20028;-88
2021/09/16 07:49:47;;;;;;;3.45;2.08;;;;;;;37.05;25.98;97877.28;5073008;28;20037;-88
2021/09/16 07:52:14;;;;;;;1.52;1.35;;;;;;;37.20;26.23;97874.84;5073019;28;20032;-88
2021/09/16 07:54:41;;;;;;;2.85;2.25;;;;;;;37.16;26.62;97876.44;5082603;28;20036;-88
2021/09/16 07:57:08;;;;;;;2.92;1.60;;;;;;;36.97;26.70;97869.78;5074352;28;20052;-88
2021/09/16 07:59:34;;;;;;;1.85;1.75;;;;;;;37.12;26.07;97873.84;5087375;28;20085;-88
2021/09/16 08:02:00;;;;;;;1.70;1.60;;;;;;;37.00;26.35;97866.63;5113609;28;20041;-88
2021/09/16 08:04:26;;;;;;;1.63;1.50;;;;;;;36.95;25.86;97875.22;5117478;28;20019;-87
2021/09/16 08:06:52;;;;;;;2.60;1.67;;;;;;;37.58;25.88;97872.28;5117618;27;20035;-87
2021/09/16 08:09:19;;;;;;;2.03;1.42;;;;;;;37.78;25.74;97878.38;5117360;28;20027;-87
2021/09/16 08:11:45;;;;;;;2.15;1.95;;;;;;;37.34;26.50;97879.44;5117412;28;20111;-88
2021/09/16 08:14:11;;;;;;;4.40;1.88;;;;;;;37.61;25.76;97879.81;5077524;28;20039;-88
2021/09/16 08:16:38;;;;;;;2.17;1.98;;;;;;;37.94;26.10;97879.56;5076518;28;20473;-88
2021/09/16 08:19:05;;;;;;;1.73;1.60;;;;;;;38.38;24.03;97884.91;5084480;28;20024;-88
2021/09/16 08:21:32;;;;;;;1.20;1.10;;;;;;;38.84;25.19;97878.13;5097163;28;20036;-87
2021/09/16 08:23:58;;;;;;;1.70;1.40;;;;;;;39.24;23.93;97876.31;5096871;28;20500;-88
2021/09/16 08:26:24;;;;;;;1.52;1.42;;;;;;;39.27;23.88;97880.97;5096822;28;20031;-88
2021/09/16 08:28:51;;;;;;;1.40;1.30;;;;;;;39.51;24.56;97883.00;5096058;28;20024;-88
2021/09/16 08:31:18;;;;;;;1.73;1.35;;;;;;;39.73;23.70;97886.31;5075429;28;20390;-87
2021/09/16 08:33:45;;;;;;;2.47;1.58;;;;;;;39.74;24.06;97890.75;5076248;28;20029;-88
2021/09/16 08:36:12;;;;;;;2.10;1.60;;;;;;;39.83;23.54;97887.47;5074822;28;20033;-88
2021/09/16 08:38:38;;;;;;;1.83;1.70;;;;;;;39.79;23.84;97898.50;5076273;28;20029;-88
2021/09/16 08:41:06;;;;;;;1.60;1.45;;;;;;;39.79;23.93;97900.59;5076181;28;20036;-88
2021/09/16 08:43:34;;;;;;;1.63;1.52;;;;;;;39.32;24.28;97897.38;5075780;28;20036;-88
2021/09/16 08:46:01;;;;;;;1.75;1.65;;;;;;;38.45;24.91;97910.13;5075303;28;20047;-88
2021/09/16 08:48:28;;;;;;;2.85;1.80;;;;;;;38.22;25.46;97911.66;5081719;28;20042;-88
2021/09/16 08:50:55;;;;;;;2.05;1.50;;;;;;;38.49;24.57;97901.22;5096044;28;20094;-87
2021/09/16 08:53:30;;;;;;;1.50;1.40;;;;;;;38.19;24.78;97906.97;5094752;28;20051;-87
2021/09/16 08:55:58;;;;;;;3.42;2.03;;;;;;;38.00;24.60;97903.22;5095469;28;20036;-88
2021/09/16 08:58:28;;;;;;;1.80;1.63;;;;;;;38.27;24.61;97904.28;5095963;28;20032;-88
2021/09/16 09:00:54;;;;;;;2.28;2.03;;;;;;;38.21;24.51;97907.22;5094203;28;20036;-88
2021/09/16 09:03:21;;;;;;;2.80;1.83;;;;;;;38.38;25.33;97907.84;5092011;28;20397;-88
2021/09/16 09:05:47;;;;;;;3.92;2.00;;;;;;;38.59;24.78;97908.16;5075767;28;20054;-87
2021/09/16 09:08:20;;;;;;;2.30;1.90;;;;;;;38.47;24.35;97910.38;5075708;28;20033;-88
2021/09/16 09:10:49;;;;;;;3.88;2.15;;;;;;;38.40;24.72;97916.69;5075478;28;20567;-88
2021/09/16 09:13:16;;;;;;;4.55;2.30;;;;;;;38.61;24.21;97914.91;5074645;28;20032;-87
2021/09/16 09:15:45;;;;;;;2.35;2.13;;;;;;;38.66;24.12;97907.56;5074684;28;20574;-87
2021/09/16 09:18:16;;;;;;;2.88;2.38;;;;;;;38.93;24.35;97908.59;5075265;28;20036;-87
2021/09/16 09:21:06;;;;;;;1.60;1.50;;;;;;;39.05;24.20;97905.00;5076322;28;20055;-87
2021/09/16 09:23:45;;;;;;;2.47;2.05;;;;;;;39.05;24.63;97901.34;5075597;28;20037;-87
2021/09/16 09:26:36;;;;;;;2.40;2.05;;;;;;;39.04;24.54;97905.56;5075252;28;20509;-88
2021/09/16 09:29:08;;;;;;;2.20;2.00;;;;;;;39.19;24.84;97911.63;5075504;28;20032;-88
2021/09/16 09:31:41;;;;;;;2.40;2.17;;;;;;;39.36;24.43;97907.22;5075340;28;20393;-88
2021/09/16 09:34:25;;;;;;;2.42;2.05;;;;;;;39.14;25.43;97910.38;5075292;28;20043;-88
2021/09/16 09:36:52;;;;;;;2.13;1.92;;;;;;;38.97;24.18;97906.97;5075155;28;20485;-88
2021/09/16 09:39:27;;;;;;;2.25;2.05;;;;;;;38.84;25.33;97906.84;5094776;28;20386;-88
2021/09/16 09:41:54;;;;;;;2.25;2.05;;;;;;;38.89;25.24;97900.25;5093727;28;20027;-88
2021/09/16 09:44:20;;;;;;;3.97;2.33;;;;;;;39.15;25.74;97900.47;5093595;28;20036;-88
2021/09/16 09:46:52;;;;;;;2.38;2.17;;;;;;;39.21;24.15;97900.41;5093854;28;20039;-88
2021/09/16 09:49:24;;;;;;;2.40;2.20;;;;;;;39.10;23.78;97891.88;5090134;28;20116;-87
2021/09/16 09:51:58;;;;;;;2.78;2.25;;;;;;;38.83;25.31;97904.53;5074804;28;20039;-87
2021/09/16 09:54:33;;;;;;;4.18;2.00;;;;;;;39.12;25.01;97900.72;5075566;28;20533;-88
2021/09/16 09:57:04;;;;;;;2.38;2.15;;;;;;;39.04;24.20;97906.34;5074903;28;20055;-88
2021/09/16 09:59:49;;;;;;;;;;;;;;;38.81;23.57;97905.06;5073971;28;20036;-88
2021/09/16 10:02:16;;;;;;;2.40;2.20;;;;;;;38.35;24.59;97903.19;5074659;28;19913;-88
2021/09/16 10:04:43;;;;;;;2.47;2.00;;;;;;;38.16;25.58;97898.69;5074414;28;20059;-87
2021/09/16 10:07:09;;;;;;;4.15;2.42;;;;;;;38.18;24.41;97896.03;5074614;28;20033;-88
2021/09/16 10:09:36;;;;;;;3.72;2.60;;;;;;;37.95;24.75;97896.22;5074075;28;20490;-88
2021/09/16 10:12:02;;;;;;;2.92;2.53;;;;;;;37.97;24.46;97901.44;5075114;28;20545;-88
2021/09/16 10:14:29;;;;;;;2.78;2.50;;;;;;;38.16;25.03;97904.41;5074242;28;20485;-87
2021/09/16 10:16:55;;;;;;;4.15;2.33;;;;;;;38.20;24.36;97904.88;5074643;28;20055;-87
2021/09/16 10:19:21;;;;;;;2.97;2.78;;;;;;;38.31;23.91;97905.59;5089109;28;20036;-87
2021/09/16 10:21:48;;;;;;;3.97;3.30;;;;;;;37.83;24.97;97903.38;5094338;28;20043;-87
2021/09/16 10:24:17;;;;;;;2.78;2.58;;;;;;;38.04;25.70;97904.50;5094328;28;20040;-87
2021/09/16 10:26:49;;;;;;;2.40;2.20;;;;;;;37.71;25.70;97898.25;5094028;28;20024;-88
2021/09/16 10:29:27;;;;;;;2.78;2.58;;;;;;;37.21;25.76;97899.31;5093271;28;20069;-87
2021/09/16 10:32:19;;;;;;;3.65;3.25;;;;;;;37.04;25.81;97897.88;5093090;28;20451;-87
2021/09/16 10:34:47;;;;;;;3.25;2.95;;;;;;;37.18;25.72;97900.38;5083434;28;20487;-87
2021/09/16 10:37:18;;;;;;;3.30;3.00;;;;;;;37.12;25.97;97898.84;5092558;28;20024;-87
2021/09/16 10:39:46;;;;;;;3.92;3.60;;;;;;;37.11;26.73;97895.19;5092628;28;20434;-87
2021/09/16 10:42:13;;;;;;;3.72;3.15;;;;;;;37.20;25.94;97897.75;5092764;28;20032;-87
2021/09/16 10:44:41;;;;;;;3.17;2.88;;;;;;;37.61;25.76;97885.53;5094406;28;20149;-87
2021/09/16 10:47:34;;;;;;;4.50;3.42;;;;;;;37.21;25.40;97892.81;5088555;28;20390;-87
2021/09/16 10:50:19;;;;;;;3.40;2.85;;;;;;;37.20;25.75;97883.44;5070274;28;20080;-87
2021/09/16 10:52:45;;;;;;;3.10;2.80;;;;;;;37.58;26.15;97883.72;5073304;28;20037;-87
2021/09/16 10:55:11;;;;;;;4.65;2.92;;;;;;;37.46;25.65;97885.91;5088097;28;20468;-87
2021/09/16 10:57:38;;;;;;;3.53;2.72;;;;;;;37.92;25.85;97882.19;5093383;28;20454;-86
2021/09/16 11:00:06;;;;;;;3.17;2.90;;;;;;;37.60;25.91;97876.16;5094032;28;20381;-87
2021/09/16 11:02:41;;;;;;;4.88;3.97;;;;;;;37.00;26.50;97866.63;5087998;28;20612;-87
2021/09/16 11:05:12;;;;;;;4.93;3.80;;;;;;;36.84;26.24;97875.25;5073536;28;20024;-87
2021/09/16 11:07:38;;;;;;;5.03;3.60;;;;;;;37.51;26.11;97875.75;5073154;28;20079;-87
2021/09/16 11:10:16;;;;;;;3.72;3.17;;;;;;;37.24;26.21;97869.63;5073309;28;20565;-87
2021/09/16 11:12:44;;;;;;;6.35;3.80;;;;;;;37.55;26.32;97877.00;5073313;28;20037;-87
2021/09/16 11:15:14;;;;;;;4.25;3.78;;;;;;;37.64;25.63;97873.03;5073684;28;20051;-87
2021/09/16 11:17:41;;;;;;;5.10;3.10;;;;;;;37.92;25.47;97879.34;5073078;28;20103;-88
2021/09/16 11:20:10;;;;;;;3.85;3.42;;;;;;;38.27;24.47;97873.56;5074058;28;20040;-87
2021/09/16 11:22:36;;;;;;;5.85;3.13;;;;;;;38.22;25.17;97874.34;5072935;28;20036;-87
2021/09/16 11:25:06;;;;;;;4.00;3.22;;;;;;;38.10;24.83;97858.56;5073241;28;20093;-87
2021/09/16 11:27:41;;;;;;;4.40;2.90;;;;;;;38.43;24.54;97863.22;5073517;28;20028;-87
2021/09/16 11:30:14;;;;;;;3.33;3.03;;;;;;;39.05;24.20;97852.53;5092331;28;20024;-88
2021/09/16 11:32:40;;;;;;;4.35;2.63;;;;;;;38.72;24.10;97847.25;5092317;28;20568;-87
2021/09/16 11:35:18;;;;;;;2.58;2.38;;;;;;;39.10;23.87;97857.44;5093913;28;20035;-88